sensor_id;sensor_type;location;lat;lon;timestamp;temperature;humidity
66088;DHT22;52872;52.994;6.940;2022-10-31T00:01:18;14.50;99.90
66088;DHT22;52872;52.994;6.940;2022-10-31T00:03:45;14.50;99.90
66088;DHT22;52872;52.994;6.940;2022-10-31T00:06:12;14.40;99.90
66088;DHT22;52872;52.994;6.940;2022-10-31T00:08:39;14.40;99.90
66088;DHT22;52872;52.994;6.940;2022-10-31T00:11:10;14.30;99.90
66088;DHT22;52872;52.994;6.940;2022-10-31T00:13:37;14.30;99.90
66088;DHT22;52872;52.994;6.940;2022-10-31T00:16:04;14.20;99.90
66088;DHT22;52872;52.994;6.940;2022-10-31T00:18:31;14.20;99.90
66088;DHT22;52872;52.994;6.940;2022-10-31T00:21:02;14.20;99.90
66088;DHT22;52872;52.994;6.940;2022-10-31T00:23:29;14.20;99.90
66088;DHT22;52872;52.994;6.940;2022-10-31T00:26:01;14.20;99.90
66088;DHT22;52872;52.994;6.940;2022-10-31T00:28:29;14.10;99.90
66088;DHT22;52872;52.994;6.940;2022-10-31T00:31:01;14.10;99.90
66088;DHT22;52872;52.994;6.940;2022-10-31T00:33:28;14.10;99.90
66088;DHT22;52872;52.994;6.940;2022-10-31T00:35:55;14.00;99.90
66088;DHT22;52872;52.994;6.940;2022-10-31T00:38:22;14.00;99.90
66088;DHT22;52872;52.994;6.940;2022-10-31T00:40:49;13.90;99.90
66088;DHT22;52872;52.994;6.940;2022-10-31T00:43:16;13.90;99.90
66088;DHT22;52872;52.994;6.940;2022-10-31T00:45:43;13.90;99.90
66088;DHT22;52872;52.994;6.940;2022-10-31T00:48:11;13.80;99.90
66088;DHT22;52872;52.994;6.940;2022-10-31T00:50:38;13.80;99.90
66088;DHT22;52872;52.994;6.940;2022-10-31T00:53:06;13.80;99.90
66088;DHT22;52872;52.994;6.940;2022-10-31T00:55:33;13.70;99.90
66088;DHT22;52872;52.994;6.940;2022-10-31T00:58:00;13.70;99.90
66088;DHT22;52872;52.994;6.940;2022-10-31T01:00:27;13.70;99.90
66088;DHT22;52872;52.994;6.940;2022-10-31T01:02:55;13.70;99.90
66088;DHT22;52872;52.994;6.940;2022-10-31T01:05:22;13.70;99.90
66088;DHT22;52872;52.994;6.940;2022-10-31T01:07:50;13.70;99.90
66088;DHT22;52872;52.994;6.940;2022-10-31T01:10:17;13.70;99.90
66088;DHT22;52872;52.994;6.940;2022-10-31T01:12:46;13.70;99.90
66088;DHT22;52872;52.994;6.940;2022-10-31T01:15:16;13.60;99.90
66088;DHT22;52872;52.994;6.940;2022-10-31T01:17:44;13.60;99.90
66088;DHT22;52872;52.994;6.940;2022-10-31T01:20:12;13.60;99.90
66088;DHT22;52872;52.994;6.940;2022-10-31T01:22:40;13.60;99.90
66088;DHT22;52872;52.994;6.940;2022-10-31T01:25:08;13.60;99.90
66088;DHT22;52872;52.994;6.940;2022-10-31T01:27:35;13.50;99.90
66088;DHT22;52872;52.994;6.940;2022-10-31T01:30:03;13.50;99.90
66088;DHT22;52872;52.994;6.940;2022-10-31T01:32:30;13.50;99.90
66088;DHT22;52872;52.994;6.940;2022-10-31T01:34:58;13.50;99.90
66088;DHT22;52872;52.994;6.940;2022-10-31T01:37:25;13.50;99.90
66088;DHT22;52872;52.994;6.940;2022-10-31T01:39:51;13.50;99.90
66088;DHT22;52872;52.994;6.940;2022-10-31T01:42:19;13.50;99.90
66088;DHT22;52872;52.994;6.940;2022-10-31T01:44:54;13.40;99.90
66088;DHT22;52872;52.994;6.940;2022-10-31T01:47:34;13.50;99.90
66088;DHT22;52872;52.994;6.940;2022-10-31T01:50:06;13.50;99.90
66088;DHT22;52872;52.994;6.940;2022-10-31T01:52:40;13.50;99.90
66088;DHT22;52872;52.994;6.940;2022-10-31T01:55:13;13.40;99.90
66088;DHT22;52872;52.994;6.940;2022-10-31T01:57:45;13.40;99.90
66088;DHT22;52872;52.994;6.940;2022-10-31T02:00:17;13.40;99.90
66088;DHT22;52872;52.994;6.940;2022-10-31T02:02:45;13.40;99.90
66088;DHT22;52872;52.994;6.940;2022-10-31T02:05:17;13.50;99.90
66088;DHT22;52872;52.994;6.940;2022-10-31T02:10:42;13.50;99.90
66088;DHT22;52872;52.994;6.940;2022-10-31T02:13:10;13.40;99.90
66088;DHT22;52872;52.994;6.940;2022-10-31T02:15:45;13.40;99.90
66088;DHT22;52872;52.994;6.940;2022-10-31T02:18:14;13.30;99.90
66088;DHT22;52872;52.994;6.940;2022-10-31T02:21:19;13.30;99.90
66088;DHT22;52872;52.994;6.940;2022-10-31T02:26:54;13.20;99.90
66088;DHT22;52872;52.994;6.940;2022-10-31T02:32:27;13.00;99.90
66088;DHT22;52872;52.994;6.940;2022-10-31T03:26:43;12.40;99.90
66088;DHT22;52872;52.994;6.940;2022-10-31T03:29:15;12.30;99.90
66088;DHT22;52872;52.994;6.940;2022-10-31T03:32:12;12.40;99.90
66088;DHT22;52872;52.994;6.940;2022-10-31T03:34:38;12.40;99.90
66088;DHT22;52872;52.994;6.940;2022-10-31T03:37:08;12.30;99.90
66088;DHT22;52872;52.994;6.940;2022-10-31T03:39:38;12.30;99.90
66088;DHT22;52872;52.994;6.940;2022-10-31T03:42:10;12.30;99.90
66088;DHT22;52872;52.994;6.940;2022-10-31T03:44:39;12.30;99.90
66088;DHT22;52872;52.994;6.940;2022-10-31T03:47:07;12.30;99.90
66088;DHT22;52872;52.994;6.940;2022-10-31T03:49:35;12.20;99.90
66088;DHT22;52872;52.994;6.940;2022-10-31T03:52:11;12.20;99.90
66088;DHT22;52872;52.994;6.940;2022-10-31T03:54:49;12.20;99.90
66088;DHT22;52872;52.994;6.940;2022-10-31T03:58:00;12.20;99.90
66088;DHT22;52872;52.994;6.940;2022-10-31T04:00:31;12.20;99.90
66088;DHT22;52872;52.994;6.940;2022-10-31T04:03:27;12.10;99.90
66088;DHT22;52872;52.994;6.940;2022-10-31T04:06:00;12.10;99.90
66088;DHT22;52872;52.994;6.940;2022-10-31T04:08:30;12.10;99.90
66088;DHT22;52872;52.994;6.940;2022-10-31T04:11:00;12.00;99.90
66088;DHT22;52872;52.994;6.940;2022-10-31T04:13:31;12.00;99.90
66088;DHT22;52872;52.994;6.940;2022-10-31T04:16:06;12.00;99.90
66088;DHT22;52872;52.994;6.940;2022-10-31T04:18:35;12.00;99.90
66088;DHT22;52872;52.994;6.940;2022-10-31T04:21:05;12.00;99.90
66088;DHT22;52872;52.994;6.940;2022-10-31T04:23:33;12.00;99.90
66088;DHT22;52872;52.994;6.940;2022-10-31T04:26:10;11.90;99.90
66088;DHT22;52872;52.994;6.940;2022-10-31T04:28:38;11.90;99.90
66088;DHT22;52872;52.994;6.940;2022-10-31T04:31:06;11.90;99.90
66088;DHT22;52872;52.994;6.940;2022-10-31T04:33:36;11.90;99.90
66088;DHT22;52872;52.994;6.940;2022-10-31T04:36:04;11.80;99.90
66088;DHT22;52872;52.994;6.940;2022-10-31T04:38:33;11.80;99.90
66088;DHT22;52872;52.994;6.940;2022-10-31T04:41:04;11.80;99.90
66088;DHT22;52872;52.994;6.940;2022-10-31T04:43:50;11.70;99.90
66088;DHT22;52872;52.994;6.940;2022-10-31T04:46:18;11.70;99.90
66088;DHT22;52872;52.994;6.940;2022-10-31T04:48:45;11.70;99.90
66088;DHT22;52872;52.994;6.940;2022-10-31T04:51:12;11.60;99.90
66088;DHT22;52872;52.994;6.940;2022-10-31T04:53:39;11.60;99.90
66088;DHT22;52872;52.994;6.940;2022-10-31T04:56:25;11.60;99.90
66088;DHT22;52872;52.994;6.940;2022-10-31T04:58:57;11.50;99.90
66088;DHT22;52872;52.994;6.940;2022-10-31T05:01:27;11.50;99.90
66088;DHT22;52872;52.994;6.940;2022-10-31T05:03:55;11.50;99.90
66088;DHT22;52872;52.994;6.940;2022-10-31T05:11:02;11.50;99.90
66088;DHT22;52872;52.994;6.940;2022-10-31T05:13:30;11.30;99.90
66088;DHT22;52872;52.994;6.940;2022-10-31T05:16:12;11.40;99.90
66088;DHT22;52872;52.994;6.940;2022-10-31T05:19:14;11.30;99.90
66088;DHT22;52872;52.994;6.940;2022-10-31T05:22:00;11.30;99.90
66088;DHT22;52872;52.994;6.940;2022-10-31T05:24:28;11.30;99.90
66088;DHT22;52872;52.994;6.940;2022-10-31T05:26:55;11.30;99.90
66088;DHT22;52872;52.994;6.940;2022-10-31T05:29:22;11.30;99.90
66088;DHT22;52872;52.994;6.940;2022-10-31T05:31:49;11.30;99.90
66088;DHT22;52872;52.994;6.940;2022-10-31T05:34:38;11.40;99.90
66088;DHT22;52872;52.994;6.940;2022-10-31T05:37:38;11.30;99.90
66088;DHT22;52872;52.994;6.940;2022-10-31T05:40:07;11.30;99.90
66088;DHT22;52872;52.994;6.940;2022-10-31T05:42:35;11.30;99.90
66088;DHT22;52872;52.994;6.940;2022-10-31T05:45:05;11.20;99.90
66088;DHT22;52872;52.994;6.940;2022-10-31T05:47:54;11.20;99.90
66088;DHT22;52872;52.994;6.940;2022-10-31T05:50:51;11.10;99.90
66088;DHT22;52872;52.994;6.940;2022-10-31T05:53:18;11.10;99.90
66088;DHT22;52872;52.994;6.940;2022-10-31T05:55:46;11.10;99.90
66088;DHT22;52872;52.994;6.940;2022-10-31T05:58:18;11.10;99.90
66088;DHT22;52872;52.994;6.940;2022-10-31T06:01:05;11.10;99.90
66088;DHT22;52872;52.994;6.940;2022-10-31T06:03:32;11.10;99.90
66088;DHT22;52872;52.994;6.940;2022-10-31T06:06:01;11.10;99.90
66088;DHT22;52872;52.994;6.940;2022-10-31T06:08:40;11.10;99.90
66088;DHT22;52872;52.994;6.940;2022-10-31T06:11:13;11.10;99.90
66088;DHT22;52872;52.994;6.940;2022-10-31T06:13:58;11.10;99.90
66088;DHT22;52872;52.994;6.940;2022-10-31T06:16:33;11.10;99.90
66088;DHT22;52872;52.994;6.940;2022-10-31T06:19:15;11.10;99.90
66088;DHT22;52872;52.994;6.940;2022-10-31T06:21:42;11.10;99.90
66088;DHT22;52872;52.994;6.940;2022-10-31T06:24:09;11.10;99.90
66088;DHT22;52872;52.994;6.940;2022-10-31T06:26:59;11.10;99.90
66088;DHT22;52872;52.994;6.940;2022-10-31T06:29:26;11.10;99.90
66088;DHT22;52872;52.994;6.940;2022-10-31T06:32:05;11.10;99.90
66088;DHT22;52872;52.994;6.940;2022-10-31T06:34:38;11.10;99.90
66088;DHT22;52872;52.994;6.940;2022-10-31T06:37:07;11.10;99.90
66088;DHT22;52872;52.994;6.940;2022-10-31T06:39:34;11.10;99.90
66088;DHT22;52872;52.994;6.940;2022-10-31T06:42:02;11.10;99.90
66088;DHT22;52872;52.994;6.940;2022-10-31T06:44:30;11.20;99.90
66088;DHT22;52872;52.994;6.940;2022-10-31T06:46:57;11.20;99.90
66088;DHT22;52872;52.994;6.940;2022-10-31T06:49:42;11.20;99.90
66088;DHT22;52872;52.994;6.940;2022-10-31T06:52:13;11.20;99.90
66088;DHT22;52872;52.994;6.940;2022-10-31T06:54:40;11.20;99.90
66088;DHT22;52872;52.994;6.940;2022-10-31T06:57:08;11.30;99.90
66088;DHT22;52872;52.994;6.940;2022-10-31T06:59:36;11.30;99.90
66088;DHT22;52872;52.994;6.940;2022-10-31T07:02:03;11.30;99.90
66088;DHT22;52872;52.994;6.940;2022-10-31T07:04:30;11.40;99.90
66088;DHT22;52872;52.994;6.940;2022-10-31T07:06:57;11.40;99.90
66088;DHT22;52872;52.994;6.940;2022-10-31T07:09:24;11.40;99.90
66088;DHT22;52872;52.994;6.940;2022-10-31T07:11:52;11.40;99.90
66088;DHT22;52872;52.994;6.940;2022-10-31T07:14:19;11.40;99.90
66088;DHT22;52872;52.994;6.940;2022-10-31T07:16:50;11.40;99.90
66088;DHT22;52872;52.994;6.940;2022-10-31T07:19:23;11.50;99.90
66088;DHT22;52872;52.994;6.940;2022-10-31T07:21:50;11.50;99.90
66088;DHT22;52872;52.994;6.940;2022-10-31T07:24:17;11.50;99.90
66088;DHT22;52872;52.994;6.940;2022-10-31T07:27:03;11.50;99.90
66088;DHT22;52872;52.994;6.940;2022-10-31T07:29:29;11.50;99.90
66088;DHT22;52872;52.994;6.940;2022-10-31T07:31:57;11.50;99.90
66088;DHT22;52872;52.994;6.940;2022-10-31T07:34:26;11.50;99.90
66088;DHT22;52872;52.994;6.940;2022-10-31T07:37:22;11.50;99.90
66088;DHT22;52872;52.994;6.940;2022-10-31T07:39:54;11.50;99.90
66088;DHT22;52872;52.994;6.940;2022-10-31T07:42:22;11.50;99.90
66088;DHT22;52872;52.994;6.940;2022-10-31T07:44:50;11.60;99.90
66088;DHT22;52872;52.994;6.940;2022-10-31T07:47:44;11.60;99.90
66088;DHT22;52872;52.994;6.940;2022-10-31T07:50:31;11.70;99.90
66088;DHT22;52872;52.994;6.940;2022-10-31T07:53:25;11.70;99.90
66088;DHT22;52872;52.994;6.940;2022-10-31T07:55:54;11.70;99.90
66088;DHT22;52872;52.994;6.940;2022-10-31T07:58:27;11.80;99.90
66088;DHT22;52872;52.994;6.940;2022-10-31T08:00:57;11.90;99.90
66088;DHT22;52872;52.994;6.940;2022-10-31T08:03:33;12.00;99.90
66088;DHT22;52872;52.994;6.940;2022-10-31T08:06:09;12.10;99.90
66088;DHT22;52872;52.994;6.940;2022-10-31T08:08:54;12.20;99.90
66088;DHT22;52872;52.994;6.940;2022-10-31T08:11:22;12.20;99.90
66088;DHT22;52872;52.994;6.940;2022-10-31T08:13:49;12.30;99.90
66088;DHT22;52872;52.994;6.940;2022-10-31T08:16:16;12.30;99.90
66088;DHT22;52872;52.994;6.940;2022-10-31T08:18:52;12.40;99.90
66088;DHT22;52872;52.994;6.940;2022-10-31T08:21:22;12.50;99.90
66088;DHT22;52872;52.994;6.940;2022-10-31T08:23:49;12.60;99.90
66088;DHT22;52872;52.994;6.940;2022-10-31T08:26:19;12.60;99.90
66088;DHT22;52872;52.994;6.940;2022-10-31T08:28:47;12.70;99.90
66088;DHT22;52872;52.994;6.940;2022-10-31T08:31:18;12.80;99.90
66088;DHT22;52872;52.994;6.940;2022-10-31T08:33:45;12.90;99.90
66088;DHT22;52872;52.994;6.940;2022-10-31T08:36:19;13.00;99.90
66088;DHT22;52872;52.994;6.940;2022-10-31T08:38:52;13.10;99.90
66088;DHT22;52872;52.994;6.940;2022-10-31T08:41:23;13.20;99.90
66088;DHT22;52872;52.994;6.940;2022-10-31T08:43:51;13.30;99.90
66088;DHT22;52872;52.994;6.940;2022-10-31T08:46:18;13.40;99.90
66088;DHT22;52872;52.994;6.940;2022-10-31T08:48:47;13.60;99.90
66088;DHT22;52872;52.994;6.940;2022-10-31T08:51:16;13.70;99.90
66088;DHT22;52872;52.994;6.940;2022-10-31T08:53:43;13.80;99.90
66088;DHT22;52872;52.994;6.940;2022-10-31T08:56:28;14.00;99.90
66088;DHT22;52872;52.994;6.940;2022-10-31T08:58:55;14.10;99.90
66088;DHT22;52872;52.994;6.940;2022-10-31T09:01:32;14.20;99.90
66088;DHT22;52872;52.994;6.940;2022-10-31T09:03:59;14.30;99.90
66088;DHT22;52872;52.994;6.940;2022-10-31T09:06:27;14.50;99.90
66088;DHT22;52872;52.994;6.940;2022-10-31T09:08:54;14.60;99.90
66088;DHT22;52872;52.994;6.940;2022-10-31T09:11:24;14.60;99.90
66088;DHT22;52872;52.994;6.940;2022-10-31T09:14:03;14.70;99.90
66088;DHT22;52872;52.994;6.940;2022-10-31T09:16:48;14.80;99.90
66088;DHT22;52872;52.994;6.940;2022-10-31T09:19:21;14.80;99.90
66088;DHT22;52872;52.994;6.940;2022-10-31T09:21:52;14.90;99.90
66088;DHT22;52872;52.994;6.940;2022-10-31T09:24:19;14.90;99.90
66088;DHT22;52872;52.994;6.940;2022-10-31T09:26:46;15.00;99.90
66088;DHT22;52872;52.994;6.940;2022-10-31T09:29:17;15.10;99.90
66088;DHT22;52872;52.994;6.940;2022-10-31T09:31:47;15.20;99.90
66088;DHT22;52872;52.994;6.940;2022-10-31T09:34:25;15.30;99.90
66088;DHT22;52872;52.994;6.940;2022-10-31T09:37:08;15.40;99.90
66088;DHT22;52872;52.994;6.940;2022-10-31T09:39:35;15.40;99.90
66088;DHT22;52872;52.994;6.940;2022-10-31T09:50:28;15.60;99.90
66088;DHT22;52872;52.994;6.940;2022-10-31T09:53:10;15.70;99.90
66088;DHT22;52872;52.994;6.940;2022-10-31T09:55:44;15.70;99.90
66088;DHT22;52872;52.994;6.940;2022-10-31T09:58:18;15.60;99.90
66088;DHT22;52872;52.994;6.940;2022-10-31T10:00:47;15.60;99.90
66088;DHT22;52872;52.994;6.940;2022-10-31T10:03:34;15.60;99.90
66088;DHT22;52872;52.994;6.940;2022-10-31T10:06:24;15.70;99.90
66088;DHT22;52872;52.994;6.940;2022-10-31T10:09:13;15.60;99.90
66088;DHT22;52872;52.994;6.940;2022-10-31T10:12:25;15.60;99.90
66088;DHT22;52872;52.994;6.940;2022-10-31T10:18:02;15.80;99.90
66088;DHT22;52872;52.994;6.940;2022-10-31T10:23:28;15.90;99.90
66088;DHT22;52872;52.994;6.940;2022-10-31T10:26:28;16.00;99.90
66088;DHT22;52872;52.994;6.940;2022-10-31T10:31:43;16.00;99.90
66088;DHT22;52872;52.994;6.940;2022-10-31T10:34:22;16.00;99.90
66088;DHT22;52872;52.994;6.940;2022-10-31T10:37:03;16.10;99.90
66088;DHT22;52872;52.994;6.940;2022-10-31T10:42:09;16.40;99.90
66088;DHT22;52872;52.994;6.940;2022-10-31T10:44:57;16.60;99.90
66088;DHT22;52872;52.994;6.940;2022-10-31T10:47:44;16.70;99.90
66088;DHT22;52872;52.994;6.940;2022-10-31T10:50:22;16.80;99.90
66088;DHT22;52872;52.994;6.940;2022-10-31T10:53:06;16.90;99.90
66088;DHT22;52872;52.994;6.940;2022-10-31T10:56:09;17.00;99.90
66088;DHT22;52872;52.994;6.940;2022-10-31T10:58:39;17.00;99.90
66088;DHT22;52872;52.994;6.940;2022-10-31T11:01:13;17.00;99.90
66088;DHT22;52872;52.994;6.940;2022-10-31T11:03:42;17.00;99.90
66088;DHT22;52872;52.994;6.940;2022-10-31T11:06:22;17.00;99.90
66088;DHT22;52872;52.994;6.940;2022-10-31T11:08:52;17.00;99.90
66088;DHT22;52872;52.994;6.940;2022-10-31T11:11:28;16.90;99.90
66088;DHT22;52872;52.994;6.940;2022-10-31T11:14:00;17.00;99.90
66088;DHT22;52872;52.994;6.940;2022-10-31T11:16:33;17.00;99.90
66088;DHT22;52872;52.994;6.940;2022-10-31T11:19:26;17.20;99.90
66088;DHT22;52872;52.994;6.940;2022-10-31T11:21:54;17.30;99.90
66088;DHT22;52872;52.994;6.940;2022-10-31T11:24:38;17.30;99.90
66088;DHT22;52872;52.994;6.940;2022-10-31T11:27:20;17.40;99.90
66088;DHT22;52872;52.994;6.940;2022-10-31T11:29:48;17.50;99.90
66088;DHT22;52872;52.994;6.940;2022-10-31T11:32:23;17.40;99.90
66088;DHT22;52872;52.994;6.940;2022-10-31T11:35:01;17.60;99.90
66088;DHT22;52872;52.994;6.940;2022-10-31T11:37:32;17.70;99.90
66088;DHT22;52872;52.994;6.940;2022-10-31T11:40:05;17.70;99.90
66088;DHT22;52872;52.994;6.940;2022-10-31T11:42:39;17.70;99.90
66088;DHT22;52872;52.994;6.940;2022-10-31T11:47:47;17.80;99.90
66088;DHT22;52872;52.994;6.940;2022-10-31T11:50:40;17.80;99.90
66088;DHT22;52872;52.994;6.940;2022-10-31T11:58:31;17.90;99.90
66088;DHT22;52872;52.994;6.940;2022-10-31T12:00:58;17.80;99.90
66088;DHT22;52872;52.994;6.940;2022-10-31T12:03:36;17.80;99.90
66088;DHT22;52872;52.994;6.940;2022-10-31T12:08:47;17.90;99.90
66088;DHT22;52872;52.994;6.940;2022-10-31T12:19:36;18.10;99.90
66088;DHT22;52872;52.994;6.940;2022-10-31T12:22:18;18.30;99.90
66088;DHT22;52872;52.994;6.940;2022-10-31T12:25:05;18.30;99.90
66088;DHT22;52872;52.994;6.940;2022-10-31T12:27:59;18.40;99.90
66088;DHT22;52872;52.994;6.940;2022-10-31T12:30:51;18.40;99.90
66088;DHT22;52872;52.994;6.940;2022-10-31T12:48:00;18.20;99.90
66088;DHT22;52872;52.994;6.940;2022-10-31T13:01:00;18.30;99.90
66088;DHT22;52872;52.994;6.940;2022-10-31T13:06:18;18.20;99.90
66088;DHT22;52872;52.994;6.940;2022-10-31T13:08:52;18.20;99.90
66088;DHT22;52872;52.994;6.940;2022-10-31T13:11:24;18.20;99.90
66088;DHT22;52872;52.994;6.940;2022-10-31T13:16:26;18.30;99.90
66088;DHT22;52872;52.994;6.940;2022-10-31T13:19:02;18.40;99.90
66088;DHT22;52872;52.994;6.940;2022-10-31T13:21:59;18.40;99.90
66088;DHT22;52872;52.994;6.940;2022-10-31T13:24:31;18.40;99.90
66088;DHT22;52872;52.994;6.940;2022-10-31T13:27:03;18.40;99.90
66088;DHT22;52872;52.994;6.940;2022-10-31T13:29:44;18.50;99.90
66088;DHT22;52872;52.994;6.940;2022-10-31T13:32:13;18.50;99.90
66088;DHT22;52872;52.994;6.940;2022-10-31T13:34:42;18.60;99.90
66088;DHT22;52872;52.994;6.940;2022-10-31T13:45:22;18.70;99.90
66088;DHT22;52872;52.994;6.940;2022-10-31T13:48:01;18.60;99.90
66088;DHT22;52872;52.994;6.940;2022-10-31T13:50:59;18.60;99.90
66088;DHT22;52872;52.994;6.940;2022-10-31T13:53:38;18.70;99.90
66088;DHT22;52872;52.994;6.940;2022-10-31T13:58:35;18.70;99.90
66088;DHT22;52872;52.994;6.940;2022-10-31T14:01:13;18.70;99.90
66088;DHT22;52872;52.994;6.940;2022-10-31T14:03:45;18.70;99.90
66088;DHT22;52872;52.994;6.940;2022-10-31T14:09:28;18.70;99.90
66088;DHT22;52872;52.994;6.940;2022-10-31T14:11:59;18.70;99.90
66088;DHT22;52872;52.994;6.940;2022-10-31T14:14:32;18.60;99.90
66088;DHT22;52872;52.994;6.940;2022-10-31T14:17:01;18.60;99.90
66088;DHT22;52872;52.994;6.940;2022-10-31T14:19:28;18.60;99.90
66088;DHT22;52872;52.994;6.940;2022-10-31T14:21:55;18.60;99.90
66088;DHT22;52872;52.994;6.940;2022-10-31T14:27:01;18.50;99.90
66088;DHT22;52872;52.994;6.940;2022-10-31T14:29:33;18.40;99.90
66088;DHT22;52872;52.994;6.940;2022-10-31T14:32:13;18.40;99.90
66088;DHT22;52872;52.994;6.940;2022-10-31T14:46:04;18.10;99.90
66088;DHT22;52872;52.994;6.940;2022-10-31T14:51:21;18.00;99.90
66088;DHT22;52872;52.994;6.940;2022-10-31T14:53:55;17.90;99.90
66088;DHT22;52872;52.994;6.940;2022-10-31T14:58:55;17.90;99.90
66088;DHT22;52872;52.994;6.940;2022-10-31T15:01:28;17.80;99.90
66088;DHT22;52872;52.994;6.940;2022-10-31T15:06:57;17.70;99.90
66088;DHT22;52872;52.994;6.940;2022-10-31T15:09:29;17.60;99.90
66088;DHT22;52872;52.994;6.940;2022-10-31T15:11:59;17.60;99.90
66088;DHT22;52872;52.994;6.940;2022-10-31T15:14:29;17.50;99.90
66088;DHT22;52872;52.994;6.940;2022-10-31T15:17:02;17.40;99.90
66088;DHT22;52872;52.994;6.940;2022-10-31T15:19:32;17.40;99.90
66088;DHT22;52872;52.994;6.940;2022-10-31T15:22:01;17.30;99.90
66088;DHT22;52872;52.994;6.940;2022-10-31T15:24:33;17.20;99.90
66088;DHT22;52872;52.994;6.940;2022-10-31T15:27:02;17.20;99.90
66088;DHT22;52872;52.994;6.940;2022-10-31T15:29:31;17.10;99.90
66088;DHT22;52872;52.994;6.940;2022-10-31T15:32:19;17.10;99.90
66088;DHT22;52872;52.994;6.940;2022-10-31T15:34:47;17.20;99.90
66088;DHT22;52872;52.994;6.940;2022-10-31T15:37:17;17.00;99.90
66088;DHT22;52872;52.994;6.940;2022-10-31T15:39:45;17.00;99.90
66088;DHT22;52872;52.994;6.940;2022-10-31T15:47:23;16.80;99.90
66088;DHT22;52872;52.994;6.940;2022-10-31T15:49:56;16.80;99.90
66088;DHT22;52872;52.994;6.940;2022-10-31T15:52:42;16.80;99.90
66088;DHT22;52872;52.994;6.940;2022-10-31T15:55:19;16.70;99.90
66088;DHT22;52872;52.994;6.940;2022-10-31T15:58:11;16.60;99.90
66088;DHT22;52872;52.994;6.940;2022-10-31T16:00:38;16.60;99.90
66088;DHT22;52872;52.994;6.940;2022-10-31T16:05:52;16.40;99.90
66088;DHT22;52872;52.994;6.940;2022-10-31T16:10:56;16.30;99.90
66088;DHT22;52872;52.994;6.940;2022-10-31T16:13:28;16.20;99.90
66088;DHT22;52872;52.994;6.940;2022-10-31T16:15:59;16.20;99.90
66088;DHT22;52872;52.994;6.940;2022-10-31T16:18:46;16.10;99.90
66088;DHT22;52872;52.994;6.940;2022-10-31T16:21:14;16.00;99.90
66088;DHT22;52872;52.994;6.940;2022-10-31T16:23:47;15.90;99.90
66088;DHT22;52872;52.994;6.940;2022-10-31T16:26:18;15.90;99.90
66088;DHT22;52872;52.994;6.940;2022-10-31T16:28:53;15.90;99.90
66088;DHT22;52872;52.994;6.940;2022-10-31T16:31:39;15.90;99.90
66088;DHT22;52872;52.994;6.940;2022-10-31T16:34:21;15.80;99.90
66088;DHT22;52872;52.994;6.940;2022-10-31T16:36:52;15.80;99.90
66088;DHT22;52872;52.994;6.940;2022-10-31T16:39:20;15.70;99.90
66088;DHT22;52872;52.994;6.940;2022-10-31T16:41:50;15.60;99.90
66088;DHT22;52872;52.994;6.940;2022-10-31T16:44:26;15.60;99.90
66088;DHT22;52872;52.994;6.940;2022-10-31T16:47:14;15.60;99.90
66088;DHT22;52872;52.994;6.940;2022-10-31T16:49:42;15.60;99.90
66088;DHT22;52872;52.994;6.940;2022-10-31T16:52:10;15.50;99.90
66088;DHT22;52872;52.994;6.940;2022-10-31T16:54:37;15.50;99.90
66088;DHT22;52872;52.994;6.940;2022-10-31T16:57:05;15.60;99.90
66088;DHT22;52872;52.994;6.940;2022-10-31T16:59:33;15.50;99.90
66088;DHT22;52872;52.994;6.940;2022-10-31T17:02:01;15.50;99.90
66088;DHT22;52872;52.994;6.940;2022-10-31T17:04:29;15.50;99.90
66088;DHT22;52872;52.994;6.940;2022-10-31T17:06:56;15.50;99.90
66088;DHT22;52872;52.994;6.940;2022-10-31T17:09:23;15.50;99.90
66088;DHT22;52872;52.994;6.940;2022-10-31T17:11:51;15.40;99.90
66088;DHT22;52872;52.994;6.940;2022-10-31T17:14:19;15.40;99.90
66088;DHT22;52872;52.994;6.940;2022-10-31T17:16:47;15.40;99.90
66088;DHT22;52872;52.994;6.940;2022-10-31T17:19:14;15.40;99.90
66088;DHT22;52872;52.994;6.940;2022-10-31T17:21:42;15.40;99.90
66088;DHT22;52872;52.994;6.940;2022-10-31T17:24:13;15.50;99.90
66088;DHT22;52872;52.994;6.940;2022-10-31T17:26:41;15.50;99.90
66088;DHT22;52872;52.994;6.940;2022-10-31T17:29:08;15.40;99.90
66088;DHT22;52872;52.994;6.940;2022-10-31T17:31:35;15.40;99.90
66088;DHT22;52872;52.994;6.940;2022-10-31T17:34:05;15.40;99.90
66088;DHT22;52872;52.994;6.940;2022-10-31T17:36:33;15.40;99.90
66088;DHT22;52872;52.994;6.940;2022-10-31T17:39:00;15.40;99.90
66088;DHT22;52872;52.994;6.940;2022-10-31T17:41:29;15.40;99.90
66088;DHT22;52872;52.994;6.940;2022-10-31T17:43:57;15.40;99.90
66088;DHT22;52872;52.994;6.940;2022-10-31T17:46:24;15.40;99.90
66088;DHT22;52872;52.994;6.940;2022-10-31T17:48:51;15.40;99.90
66088;DHT22;52872;52.994;6.940;2022-10-31T17:51:18;15.40;99.90
66088;DHT22;52872;52.994;6.940;2022-10-31T17:53:45;15.40;99.90
66088;DHT22;52872;52.994;6.940;2022-10-31T17:56:12;15.40;99.90
66088;DHT22;52872;52.994;6.940;2022-10-31T17:58:39;15.50;99.90
66088;DHT22;52872;52.994;6.940;2022-10-31T18:01:14;15.50;99.90
66088;DHT22;52872;52.994;6.940;2022-10-31T18:03:42;15.50;99.90
66088;DHT22;52872;52.994;6.940;2022-10-31T18:06:09;15.50;99.90
66088;DHT22;52872;52.994;6.940;2022-10-31T18:08:38;15.50;99.90
66088;DHT22;52872;52.994;6.940;2022-10-31T18:11:18;15.50;99.90
66088;DHT22;52872;52.994;6.940;2022-10-31T18:13:45;15.50;99.90
66088;DHT22;52872;52.994;6.940;2022-10-31T18:16:14;15.50;99.90
66088;DHT22;52872;52.994;6.940;2022-10-31T18:18:42;15.50;99.90
66088;DHT22;52872;52.994;6.940;2022-10-31T18:21:09;15.50;99.90
66088;DHT22;52872;52.994;6.940;2022-10-31T18:23:36;15.50;99.90
66088;DHT22;52872;52.994;6.940;2022-10-31T18:26:03;15.50;99.90
66088;DHT22;52872;52.994;6.940;2022-10-31T18:28:30;15.60;99.90
66088;DHT22;52872;52.994;6.940;2022-10-31T18:30:58;15.60;99.90
66088;DHT22;52872;52.994;6.940;2022-10-31T18:33:26;15.60;99.90
66088;DHT22;52872;52.994;6.940;2022-10-31T18:35:53;15.50;99.90
66088;DHT22;52872;52.994;6.940;2022-10-31T18:38:20;15.50;99.90
66088;DHT22;52872;52.994;6.940;2022-10-31T18:40:49;15.50;99.90
66088;DHT22;52872;52.994;6.940;2022-10-31T18:43:16;15.50;99.90
66088;DHT22;52872;52.994;6.940;2022-10-31T18:45:43;15.50;99.90
66088;DHT22;52872;52.994;6.940;2022-10-31T18:48:14;15.50;99.90
66088;DHT22;52872;52.994;6.940;2022-10-31T18:50:42;15.50;99.90
66088;DHT22;52872;52.994;6.940;2022-10-31T18:53:09;15.50;99.90
66088;DHT22;52872;52.994;6.940;2022-10-31T18:55:40;15.50;99.90
66088;DHT22;52872;52.994;6.940;2022-10-31T18:58:09;15.50;99.90
66088;DHT22;52872;52.994;6.940;2022-10-31T19:00:36;15.50;99.90
66088;DHT22;52872;52.994;6.940;2022-10-31T19:03:04;15.50;99.90
66088;DHT22;52872;52.994;6.940;2022-10-31T19:05:31;15.50;99.90